createdAt,value
2023-03-16T00:01:45.655Z,11.65
2023-03-16T00:04:13.293Z,9.82
2023-03-16T00:06:40.231Z,12.57
2023-03-16T00:09:07.542Z,11.20
2023-03-16T00:11:34.528Z,15.00
2023-03-16T00:14:04.246Z,13.18
2023-03-16T00:16:31.681Z,10.55
2023-03-16T00:18:59.403Z,10.13
2023-03-16T00:21:46.715Z,16.38
2023-03-16T00:24:43.264Z,17.35
2023-03-16T00:27:14.822Z,12.32
2023-03-16T00:30:02.721Z,15.15
2023-03-16T00:33:03.790Z,13.38
2023-03-16T00:35:50.627Z,13.13
2023-03-16T00:38:18.739Z,14.18
2023-03-16T00:40:47.283Z,19.63
2023-03-16T00:43:34.732Z,15.30
2023-03-16T00:46:17.178Z,13.70
2023-03-16T00:48:46.672Z,16.75
2023-03-16T00:51:16.745Z,13.40
2023-03-16T00:53:46.361Z,14.48
2023-03-16T00:56:14.371Z,12.13
2023-03-16T00:58:43.285Z,13.73
2023-03-16T01:01:17.365Z,11.27
2023-03-16T01:03:44.906Z,24.40
2023-03-16T01:06:15.392Z,10.73
2023-03-16T01:08:43.116Z,14.90
2023-03-16T01:11:12.691Z,15.25
2023-03-16T01:13:40.553Z,23.65
2023-03-16T01:16:09.480Z,8.80
2023-03-16T01:18:36.848Z,14.80
2023-03-16T01:21:06.983Z,11.15
2023-03-16T01:23:35.816Z,18.83
2023-03-16T01:26:03.312Z,12.90
2023-03-16T01:28:51.735Z,9.73
2023-03-16T01:31:52.739Z,9.90
2023-03-16T01:34:53.944Z,10.80
2023-03-16T01:37:54.761Z,20.10
2023-03-16T01:40:29.156Z,9.93
2023-03-16T01:43:18.735Z,12.00
2023-03-16T01:46:06.416Z,18.93
2023-03-16T01:48:57.361Z,12.82
2023-03-16T01:51:34.457Z,12.70
2023-03-16T01:54:14.813Z,10.75
2023-03-16T01:57:04.952Z,11.07
2023-03-16T01:59:43.106Z,10.00
2023-03-16T02:02:13.749Z,9.80
2023-03-16T02:04:59.513Z,13.35
2023-03-16T02:07:28.905Z,16.52
2023-03-16T02:10:02.681Z,15.75
2023-03-16T02:14:59.726Z,12.88
2023-03-16T02:17:29.406Z,11.60
2023-03-16T02:20:25.462Z,9.88
2023-03-16T02:22:56.836Z,12.00
2023-03-16T02:25:29.884Z,11.95
2023-03-16T02:28:12.139Z,16.98
2023-03-16T02:31:18.803Z,10.15
2023-03-16T02:34:22.770Z,13.45
2023-03-16T02:37:03.747Z,9.82
2023-03-16T02:39:31.054Z,16.23
2023-03-16T02:42:18.760Z,12.60
2023-03-16T02:45:02.501Z,16.08
2023-03-16T02:47:45.810Z,15.65
2023-03-16T02:50:13.204Z,14.07
2023-03-16T02:52:41.958Z,14.23
2023-03-16T02:55:09.743Z,18.00
2023-03-16T02:57:37.071Z,15.35
2023-03-16T03:00:17.193Z,14.13
2023-03-16T03:02:46.156Z,13.85
2023-03-16T03:05:13.421Z,10.63
2023-03-16T03:07:40.935Z,10.60
2023-03-16T03:10:08.980Z,9.88
2023-03-16T03:12:35.985Z,8.77
2023-03-16T03:15:07.149Z,9.27
2023-03-16T03:17:43.153Z,10.02
2023-03-16T03:20:19.855Z,11.32
2023-03-16T03:22:52.820Z,8.98
2023-03-16T03:25:21.961Z,9.75
2023-03-16T03:27:50.662Z,11.77
2023-03-16T03:30:33.845Z,9.70
2023-03-16T03:33:34.834Z,9.67
2023-03-16T03:36:15.636Z,13.27
2023-03-16T03:38:44.778Z,19.60
2023-03-16T03:41:12.945Z,11.00
2023-03-16T03:44:00.819Z,14.27
2023-03-16T03:47:02.955Z,15.40
2023-03-16T03:49:43.538Z,13.15
2023-03-16T03:52:11.292Z,12.43
2023-03-16T03:54:38.264Z,15.27
2023-03-16T03:57:09.431Z,13.27
2023-03-16T03:59:42.630Z,13.73
2023-03-16T04:02:48.864Z,13.20
2023-03-16T04:05:36.605Z,17.27
2023-03-16T04:08:04.355Z,14.77
2023-03-16T04:10:31.662Z,18.25
2023-03-16T04:13:00.441Z,27.58
2023-03-16T04:15:33.134Z,17.45
2023-03-16T04:18:14.071Z,22.75
2023-03-16T04:20:42.213Z,24.67
2023-03-16T04:23:10.635Z,24.23
2023-03-16T04:25:39.807Z,20.60
2023-03-16T04:28:08.678Z,17.85
2023-03-16T04:31:00.817Z,18.02
2023-03-16T04:33:46.557Z,15.88
2023-03-16T04:36:15.619Z,23.23
2023-03-16T04:38:43.679Z,16.10
2023-03-16T04:41:11.984Z,14.85
2023-03-16T04:44:05.816Z,15.15
2023-03-16T04:46:46.648Z,21.55
2023-03-16T04:49:14.039Z,22.73
2023-03-16T04:51:44.149Z,26.23
2023-03-16T04:54:15.054Z,15.23
2023-03-16T04:56:44.021Z,14.50
2023-03-16T04:59:25.598Z,24.27
2023-03-16T05:02:01.490Z,17.83
2023-03-16T05:04:28.531Z,24.63
2023-03-16T05:06:55.521Z,13.32
2023-03-16T05:09:39.850Z,14.70
2023-03-16T05:12:40.852Z,19.40
2023-03-16T05:15:21.456Z,19.95
2023-03-16T05:17:58.556Z,17.15
2023-03-16T05:20:26.540Z,16.05
2023-03-16T05:22:57.930Z,26.10
2023-03-16T05:25:31.112Z,16.27
2023-03-16T05:28:02.174Z,20.05
2023-03-16T05:30:55.963Z,21.42
2023-03-16T05:33:39.440Z,17.40
2023-03-16T05:36:13.801Z,12.63
2023-03-16T05:38:43.817Z,17.38
2023-03-16T05:41:15.061Z,15.23
2023-03-16T05:44:28.868Z,19.50
2023-03-16T05:47:17.461Z,13.82
2023-03-16T05:49:50.948Z,17.70
2023-03-16T05:52:26.255Z,18.17
2023-03-16T05:54:55.517Z,15.52
2023-03-16T05:57:22.807Z,13.07
2023-03-16T05:59:51.638Z,19.15
2023-03-16T06:02:39.016Z,17.70
2023-03-16T06:05:22.021Z,15.18
2023-03-16T06:07:50.284Z,15.13
2023-03-16T06:10:21.358Z,15.55
2023-03-16T06:12:48.687Z,23.08
2023-03-16T06:15:16.056Z,21.80
2023-03-16T06:17:43.233Z,23.02
2023-03-16T06:20:13.172Z,24.42
2023-03-16T06:22:43.317Z,15.75
2023-03-16T06:25:13.614Z,27.65
2023-03-16T06:27:42.573Z,15.73
2023-03-16T06:30:32.905Z,18.08
2023-03-16T06:33:33.915Z,28.42
2023-03-16T06:36:15.067Z,28.63
2023-03-16T06:38:47.335Z,26.65
2023-03-16T06:41:54.927Z,12.77
2023-03-16T06:44:55.961Z,18.25
2023-03-16T06:47:36.601Z,12.45
2023-03-16T06:50:04.790Z,13.50
2023-03-16T06:52:31.809Z,14.63
2023-03-16T06:54:59.191Z,14.20
2023-03-16T06:57:28.413Z,13.27
2023-03-16T06:59:55.536Z,36.88
2023-03-16T07:02:42.920Z,16.85
2023-03-16T07:05:33.628Z,15.00
2023-03-16T07:08:01.373Z,11.20
2023-03-16T07:10:28.649Z,13.27
2023-03-16T07:12:55.846Z,9.60
2023-03-16T07:15:26.492Z,7.30
2023-03-16T07:17:56.319Z,7.82
2023-03-16T07:20:23.869Z,9.82
2023-03-16T07:22:51.095Z,12.93
2023-03-16T07:25:18.177Z,11.80
2023-03-16T07:27:50.814Z,10.35
2023-03-16T07:30:37.957Z,11.88
2023-03-16T07:35:45.874Z,9.27
2023-03-16T07:38:13.158Z,8.70
2023-03-16T07:40:42.033Z,17.27
2023-03-16T07:43:28.949Z,16.15
2023-03-16T07:46:29.986Z,10.77
2023-03-16T07:49:11.869Z,7.68
2023-03-16T07:51:39.793Z,8.32
2023-03-16T07:54:07.723Z,18.60
2023-03-16T07:56:55.949Z,9.27
2023-03-16T07:59:42.749Z,14.07
2023-03-16T08:02:14.638Z,7.63
2023-03-16T08:04:42.664Z,6.55
2023-03-16T08:07:15.281Z,6.72
2023-03-16T08:09:56.769Z,10.57
2023-03-16T08:12:29.381Z,8.27
2023-03-16T08:14:56.981Z,8.48
2023-03-16T08:17:30.603Z,9.77
2023-03-16T08:19:59.861Z,16.33
2023-03-16T08:22:27.346Z,6.93
2023-03-16T08:24:54.770Z,11.25
2023-03-16T08:27:22.767Z,8.48
2023-03-16T08:30:13.996Z,7.97
2023-03-16T08:33:23.267Z,11.77
2023-03-16T08:36:06.626Z,6.53
2023-03-16T08:38:33.876Z,6.50
2023-03-16T08:41:25.084Z,16.20
2023-03-16T08:44:32.006Z,8.45
2023-03-16T08:47:12.576Z,5.95
2023-03-16T08:49:43.037Z,7.88
2023-03-16T08:52:33.983Z,5.40
2023-03-16T08:55:35.994Z,11.68
2023-03-16T08:58:16.549Z,12.18
2023-03-16T09:00:46.447Z,8.07
2023-03-16T09:03:13.894Z,7.95
2023-03-16T09:05:40.909Z,10.88
2023-03-16T09:08:08.907Z,14.60
2023-03-16T09:10:36.655Z,5.55
2023-03-16T09:13:03.763Z,6.72
2023-03-16T09:15:31.565Z,5.50
2023-03-16T09:18:00.794Z,5.07
2023-03-16T09:20:35.085Z,7.30
2023-03-16T09:23:02.502Z,5.68
2023-03-16T09:25:31.092Z,8.30
2023-03-16T09:27:58.630Z,6.85
2023-03-16T09:30:46.031Z,10.02
2023-03-16T09:33:28.850Z,10.25
2023-03-16T09:36:00.701Z,23.17
2023-03-16T09:38:34.183Z,8.30
2023-03-16T09:41:32.927Z,7.85
2023-03-16T09:44:58.115Z,9.32
2023-03-16T09:47:50.844Z,6.57
2023-03-16T09:50:24.529Z,6.45
2023-03-16T09:53:29.969Z,6.65
2023-03-16T09:56:33.545Z,5.60
2023-03-16T09:59:01.473Z,8.88
2023-03-16T10:02:30.144Z,9.95
2023-03-16T10:05:28.522Z,9.45
2023-03-16T10:08:24.938Z,6.50
2023-03-16T10:11:13.717Z,13.40
2023-03-16T10:13:59.120Z,6.25
2023-03-16T10:16:34.115Z,4.97
2023-03-16T10:19:30.970Z,10.38
2023-03-16T10:22:02.672Z,6.50
2023-03-16T10:24:55.963Z,4.53
2023-03-16T10:27:34.612Z,10.23
2023-03-16T10:30:05.160Z,9.88
2023-03-16T10:32:35.918Z,5.93
2023-03-16T10:35:21.047Z,5.10
2023-03-16T10:38:08.100Z,6.57
2023-03-16T10:40:58.672Z,8.18
2023-03-16T10:43:46.127Z,16.88
2023-03-16T10:46:57.135Z,15.48
2023-03-16T10:49:42.329Z,4.80
2023-03-16T10:52:17.043Z,4.32
2023-03-16T10:54:57.618Z,4.57
2023-03-16T10:57:31.665Z,5.15
2023-03-16T11:00:21.278Z,6.60
2023-03-16T11:02:50.297Z,17.35
2023-03-16T11:08:12.332Z,9.25
2023-03-16T11:10:55.121Z,4.07
2023-03-16T11:13:24.871Z,4.27
2023-03-16T11:16:05.368Z,3.10
2023-03-16T11:18:39.234Z,7.65
2023-03-16T11:21:38.683Z,7.80
2023-03-16T11:24:14.970Z,4.53
2023-03-16T11:26:44.570Z,7.88
2023-03-16T11:29:55.486Z,3.92
2023-03-16T11:32:55.120Z,2.90
2023-03-16T11:36:23.086Z,4.68
2023-03-16T11:39:28.377Z,3.92
2023-03-16T11:42:39.403Z,3.05
2023-03-16T11:45:49.158Z,5.88
2023-03-16T11:49:01.144Z,2.33
2023-03-16T11:52:00.131Z,2.40
2023-03-16T11:54:42.511Z,9.60
2023-03-16T11:57:36.981Z,3.83
2023-03-16T12:00:16.280Z,3.83
2023-03-16T12:03:02.167Z,9.27
2023-03-16T12:06:05.685Z,3.30
2023-03-16T12:08:57.779Z,3.15
2023-03-16T12:11:38.214Z,8.32
2023-03-16T12:14:18.431Z,5.90
2023-03-16T12:17:05.957Z,4.43
2023-03-16T12:19:52.465Z,8.23
2023-03-16T12:22:33.030Z,4.38
2023-03-16T12:25:01.760Z,5.35
2023-03-16T12:27:52.234Z,4.15
2023-03-16T12:30:52.343Z,4.13
2023-03-16T12:33:58.656Z,4.15
2023-03-16T12:36:39.116Z,10.57
2023-03-16T12:39:25.059Z,4.13
2023-03-16T12:42:34.181Z,6.25
2023-03-16T12:45:53.205Z,8.20
2023-03-16T12:48:54.211Z,4.38
2023-03-16T12:51:48.127Z,4.80
2023-03-16T12:54:49.322Z,4.68
2023-03-16T12:57:50.156Z,4.90
2023-03-16T13:00:54.222Z,3.55
2023-03-16T13:03:34.709Z,5.25
2023-03-16T13:06:03.626Z,4.50
2023-03-16T13:08:44.197Z,4.22
2023-03-16T13:11:14.553Z,5.93
2023-03-16T13:14:10.985Z,6.75
2023-03-16T13:16:38.840Z,3.45
2023-03-16T13:19:26.592Z,4.00
2023-03-16T13:22:19.520Z,5.55
2023-03-16T13:24:53.681Z,9.93
2023-03-16T13:27:46.257Z,5.65
2023-03-16T13:30:32.300Z,5.25
2023-03-16T13:33:31.306Z,11.45
2023-03-16T13:36:00.081Z,5.55
2023-03-16T13:38:31.488Z,6.68
2023-03-16T13:41:09.723Z,11.90
2023-03-16T13:43:57.140Z,7.03
2023-03-16T13:47:02.238Z,6.05
2023-03-16T13:50:11.164Z,13.93
2023-03-16T13:53:15.197Z,5.93
2023-03-16T13:56:17.168Z,6.87
2023-03-16T13:58:58.930Z,5.40
2023-03-16T14:01:29.336Z,7.15
2023-03-16T14:04:00.513Z,7.38
2023-03-16T14:06:31.440Z,5.50
2023-03-16T14:09:03.238Z,4.10
2023-03-16T14:11:30.672Z,5.38
2023-03-16T14:14:00.652Z,3.47
2023-03-16T14:16:32.303Z,4.43
2023-03-16T14:19:42.208Z,4.45
2023-03-16T14:22:29.386Z,5.47
2023-03-16T14:25:00.909Z,8.05
2023-03-16T14:27:54.390Z,4.10
2023-03-16T14:30:35.216Z,6.90
2023-03-16T14:33:22.271Z,5.05
2023-03-16T14:35:56.436Z,5.30
2023-03-16T14:38:38.860Z,7.68
2023-03-16T14:41:12.501Z,6.57
2023-03-16T14:44:03.275Z,7.05
2023-03-16T14:47:07.600Z,5.63
2023-03-16T14:50:11.244Z,7.80
2023-03-16T14:53:12.434Z,6.38
2023-03-16T14:56:14.530Z,12.70
2023-03-16T14:59:09.743Z,5.10
2023-03-16T15:02:04.334Z,5.80
2023-03-16T15:05:03.557Z,5.57
2023-03-16T15:07:34.909Z,6.78
2023-03-16T15:10:24.665Z,4.85
2023-03-16T15:12:57.389Z,7.40
2023-03-16T15:15:45.240Z,6.22
2023-03-16T15:18:25.727Z,6.65
2023-03-16T15:20:54.056Z,6.70
2023-03-16T15:23:43.263Z,8.90
2023-03-16T15:26:28.813Z,10.65
2023-03-16T15:29:16.257Z,6.15
2023-03-16T15:31:57.474Z,9.95
2023-03-16T15:34:24.433Z,7.90
2023-03-16T15:36:51.905Z,5.78
2023-03-16T15:39:24.945Z,6.50
2023-03-16T15:42:12.192Z,5.25
2023-03-16T15:44:53.080Z,11.68
2023-03-16T15:47:21.015Z,7.80
2023-03-16T15:49:48.472Z,7.15
2023-03-16T15:52:44.464Z,11.13
2023-03-16T15:55:45.227Z,5.45
2023-03-16T15:58:48.229Z,9.52
2023-03-16T16:01:58.298Z,11.32
2023-03-16T16:04:59.238Z,7.00
2023-03-16T16:07:39.775Z,12.60
2023-03-16T16:10:28.514Z,5.97
2023-03-16T16:13:20.319Z,12.20
2023-03-16T16:16:07.253Z,8.77
2023-03-16T16:19:08.301Z,6.38
2023-03-16T16:21:48.994Z,10.00
2023-03-16T16:24:18.260Z,16.13
2023-03-16T16:26:55.529Z,7.47
2023-03-16T16:29:32.252Z,13.57
2023-03-16T16:32:25.291Z,24.13
2023-03-16T16:35:12.284Z,10.45
2023-03-16T16:37:53.338Z,8.98
2023-03-16T16:40:23.515Z,11.00
2023-03-16T16:43:03.274Z,6.80
2023-03-16T16:45:44.014Z,14.45
2023-03-16T16:48:29.141Z,9.20
2023-03-16T16:50:56.520Z,19.60
2023-03-16T16:53:23.673Z,19.48
2023-03-16T16:56:10.295Z,20.05
2023-03-16T16:58:51.092Z,11.57
2023-03-16T17:01:41.235Z,7.38
2023-03-16T17:04:43.282Z,16.80
2023-03-16T17:07:24.323Z,8.18
2023-03-16T17:10:44.646Z,10.55
2023-03-16T17:13:29.926Z,10.88
2023-03-16T17:15:57.008Z,14.73
2023-03-16T17:18:24.481Z,23.95
2023-03-16T17:20:52.462Z,16.50
2023-03-16T17:23:25.931Z,17.95
2023-03-16T17:25:55.398Z,12.15
2023-03-16T17:28:46.293Z,19.85
2023-03-16T17:31:35.136Z,9.90
2023-03-16T17:34:06.821Z,19.65
2023-03-16T17:36:33.899Z,20.00
2023-03-16T17:39:03.130Z,14.60
2023-03-16T17:41:50.377Z,11.05
2023-03-16T17:44:42.069Z,14.40
2023-03-16T17:47:31.361Z,9.65
2023-03-16T17:49:58.493Z,10.35
2023-03-16T17:52:45.329Z,9.02
2023-03-16T17:55:46.308Z,10.38
2023-03-16T17:58:47.307Z,11.35
2023-03-16T18:01:42.470Z,15.65
2023-03-16T18:04:35.299Z,10.10
2023-03-16T18:07:36.405Z,14.15
2023-03-16T18:10:40.305Z,21.92
2023-03-16T18:13:27.032Z,20.48
2023-03-16T18:15:56.000Z,12.93
2023-03-16T18:18:26.970Z,21.52
2023-03-16T18:21:00.589Z,13.68
2023-03-16T18:23:33.757Z,11.80
2023-03-16T18:26:21.316Z,13.65
2023-03-16T18:29:02.175Z,8.80
2023-03-16T18:31:29.351Z,26.08
2023-03-16T18:34:20.359Z,13.10
2023-03-16T18:37:06.306Z,7.75
2023-03-16T18:39:33.617Z,14.60
2023-03-16T18:42:28.416Z,10.50
2023-03-16T18:45:14.080Z,8.55
2023-03-16T18:47:47.386Z,19.05
2023-03-16T18:50:28.303Z,17.38
2023-03-16T18:52:57.079Z,13.88
2023-03-16T18:55:51.328Z,12.98
2023-03-16T18:58:52.310Z,12.13
2023-03-16T19:01:55.471Z,16.52
2023-03-16T19:04:36.138Z,15.23
2023-03-16T19:07:05.609Z,10.55
2023-03-16T19:09:33.060Z,12.68
2023-03-16T19:12:00.337Z,11.20
2023-03-16T19:14:31.800Z,19.40
2023-03-16T19:16:59.026Z,16.08
2023-03-16T19:19:26.439Z,8.85
2023-03-16T19:21:57.218Z,17.50
2023-03-16T19:24:30.773Z,6.00
2023-03-16T19:27:27.340Z,9.88
2023-03-16T19:30:55.353Z,11.73
2023-03-16T19:33:56.394Z,5.28
2023-03-16T19:36:57.350Z,11.27
2023-03-16T19:39:38.517Z,6.88
2023-03-16T19:42:36.388Z,4.65
2023-03-16T19:45:42.393Z,10.25
2023-03-16T19:48:47.378Z,5.05
2023-03-16T19:51:48.385Z,5.97
2023-03-16T19:54:50.514Z,4.30
2023-03-16T19:57:51.386Z,9.23
2023-03-16T20:00:54.479Z,3.85
2023-03-16T20:03:55.381Z,6.55
2023-03-16T20:06:56.364Z,4.00
2023-03-16T20:09:57.423Z,5.18
2023-03-16T20:13:03.629Z,6.57
2023-03-16T20:16:04.426Z,6.60
2023-03-16T20:18:45.406Z,6.55
2023-03-16T20:21:32.421Z,7.40
2023-03-16T20:24:35.564Z,10.20
2023-03-16T20:27:37.467Z,6.30
2023-03-16T20:30:38.567Z,2.78
2023-03-16T20:33:43.713Z,3.13
2023-03-16T20:36:45.789Z,7.20
2023-03-16T20:39:46.458Z,5.35
2023-03-16T20:42:48.592Z,3.75
2023-03-16T20:45:50.511Z,5.18
2023-03-16T20:48:51.553Z,8.63
2023-03-16T20:51:52.687Z,5.43
2023-03-16T20:54:57.815Z,2.67
2023-03-16T20:57:59.588Z,3.55
2023-03-16T21:00:42.568Z,4.80
2023-03-16T21:03:38.578Z,2.45
2023-03-16T21:06:42.754Z,16.02
2023-03-16T21:09:28.029Z,9.13
2023-03-16T21:12:17.481Z,6.97
2023-03-16T21:15:32.418Z,4.72
2023-03-16T21:18:21.716Z,3.97
2023-03-16T21:20:50.522Z,4.57
2023-03-16T21:23:37.691Z,2.88
2023-03-16T21:26:40.686Z,3.78
2023-03-16T21:29:24.730Z,6.53
2023-03-16T21:31:52.041Z,3.45
2023-03-16T21:34:26.338Z,3.00
2023-03-16T21:36:53.949Z,3.58
2023-03-16T21:39:42.539Z,4.45
2023-03-16T21:42:46.561Z,5.68
2023-03-16T21:45:49.061Z,7.50
2023-03-16T21:48:52.814Z,2.85
2023-03-16T21:51:42.613Z,7.80
2023-03-16T21:54:45.705Z,5.75
2023-03-16T21:57:26.135Z,5.72
2023-03-16T21:59:53.220Z,4.22
2023-03-16T22:02:24.064Z,4.30
2023-03-16T22:04:53.494Z,16.70
2023-03-16T22:07:23.218Z,6.00
2023-03-16T22:09:50.339Z,4.32
2023-03-16T22:12:37.435Z,7.65
2023-03-16T22:15:18.454Z,5.68
2023-03-16T22:17:45.660Z,6.20
2023-03-16T22:20:22.740Z,2.97
2023-03-16T22:22:51.431Z,10.77
2023-03-16T22:25:21.735Z,2.97
2023-03-16T22:27:49.374Z,5.80
2023-03-16T22:30:19.989Z,4.32
2023-03-16T22:32:49.530Z,4.32
2023-03-16T22:35:46.515Z,7.97
2023-03-16T22:38:48.542Z,3.35
2023-03-16T22:41:49.433Z,4.28
2023-03-16T22:44:50.490Z,4.40
2023-03-16T22:47:47.616Z,18.52
2023-03-16T22:50:16.787Z,6.75
2023-03-16T22:52:47.948Z,5.43
2023-03-16T22:55:33.489Z,4.75
2023-03-16T22:58:34.559Z,8.38
2023-03-16T23:01:20.280Z,5.15
2023-03-16T23:04:07.456Z,11.93
2023-03-16T23:06:53.814Z,3.28
2023-03-16T23:09:21.992Z,6.50
2023-03-16T23:12:09.506Z,4.32
2023-03-16T23:15:10.494Z,7.43
2023-03-16T23:17:51.342Z,4.57
2023-03-16T23:20:30.840Z,4.32
2023-03-16T23:23:18.492Z,9.65
2023-03-16T23:25:59.185Z,4.00
2023-03-16T23:28:26.280Z,3.58
2023-03-16T23:30:53.313Z,4.88
2023-03-16T23:33:20.307Z,9.25
2023-03-16T23:35:47.683Z,6.03
2023-03-16T23:38:14.707Z,5.47
2023-03-16T23:40:41.691Z,6.47
2023-03-16T23:43:28.502Z,14.57
2023-03-16T23:46:18.665Z,7.32
2023-03-16T23:48:47.832Z,14.23
2023-03-16T23:51:34.639Z,10.60
2023-03-16T23:54:32.499Z,8.30
2023-03-16T23:57:33.490Z,13.73
